createdAt,value
2022-12-11T00:00:00.274Z,-0.39
2022-12-11T00:01:00.248Z,-0.39
2022-12-11T00:02:00.214Z,-0.41
2022-12-11T00:03:00.312Z,-0.39
2022-12-11T00:04:00.256Z,-0.41
2022-12-11T00:05:00.186Z,-0.44
2022-12-11T00:06:00.151Z,-0.49
2022-12-11T00:07:00.154Z,-0.50
2022-12-11T00:08:00.275Z,-0.50
2022-12-11T00:09:00.140Z,-0.47
2022-12-11T00:10:00.143Z,-0.49
2022-12-11T00:11:00.085Z,-0.49
2022-12-11T00:12:00.112Z,-0.47
2022-12-11T00:13:00.083Z,-0.49
2022-12-11T00:14:00.052Z,-0.49
2022-12-11T00:15:00.041Z,-0.52
2022-12-11T00:16:00.050Z,-0.53
2022-12-11T00:17:00.122Z,-0.53
2022-12-11T00:18:00.013Z,-0.54
2022-12-11T00:19:00.045Z,-0.54
2022-12-11T00:19:59.982Z,-0.53
2022-12-11T00:20:59.982Z,-0.53
2022-12-11T00:21:59.952Z,-0.54
2022-12-11T00:22:59.944Z,-0.52
2022-12-11T00:23:59.952Z,-0.50
2022-12-11T00:24:59.912Z,-0.52
2022-12-11T00:25:59.904Z,-0.50
2022-12-11T00:26:59.873Z,-0.50
2022-12-11T00:27:59.925Z,-0.49
2022-12-11T00:28:59.843Z,-0.47
2022-12-11T00:29:59.869Z,-0.49
2022-12-11T00:30:59.825Z,-0.49
2022-12-11T00:31:59.901Z,-0.49
2022-12-11T00:32:59.830Z,-0.50
2022-12-11T00:33:59.793Z,-0.50
2022-12-11T00:34:59.772Z,-0.50
2022-12-11T00:35:59.798Z,-0.49
2022-12-11T00:36:59.803Z,-0.49
2022-12-11T00:37:59.737Z,-0.46
2022-12-11T00:38:59.719Z,-0.46
2022-12-11T00:39:59.701Z,-0.46
2022-12-11T00:40:59.718Z,-0.46
2022-12-11T00:41:59.719Z,-0.46
2022-12-11T00:42:59.658Z,-0.46
2022-12-11T00:43:59.667Z,-0.46
2022-12-11T00:44:59.669Z,-0.46
2022-12-11T00:45:59.680Z,-0.44
2022-12-11T00:46:59.647Z,-0.46
2022-12-11T00:47:59.629Z,-0.44
2022-12-11T00:48:59.611Z,-0.49
2022-12-11T00:49:59.601Z,-0.49
2022-12-11T00:50:59.563Z,-0.52
2022-12-11T00:51:59.593Z,-0.50
2022-12-11T00:52:59.569Z,-0.47
2022-12-11T00:53:59.530Z,-0.47
2022-12-11T00:54:59.504Z,-0.46
2022-12-11T00:55:59.533Z,-0.44
2022-12-11T00:56:59.487Z,-0.46
2022-12-11T00:57:59.506Z,-0.44
2022-12-11T00:58:59.499Z,-0.46
2022-12-11T00:59:59.455Z,-0.46
2022-12-11T01:00:59.500Z,-0.43
2022-12-11T01:01:59.453Z,-0.43
2022-12-11T01:02:59.429Z,-0.44
2022-12-11T01:03:59.399Z,-0.43
2022-12-11T01:04:59.422Z,-0.39
2022-12-11T01:05:59.394Z,-0.43
2022-12-11T01:06:59.348Z,-0.41
2022-12-11T01:07:59.429Z,-0.39
2022-12-11T01:08:59.351Z,-0.43
2022-12-11T01:09:59.331Z,-0.41
2022-12-11T01:10:59.321Z,-0.43
2022-12-11T01:11:59.291Z,-0.43
2022-12-11T01:12:59.274Z,-0.44
2022-12-11T01:13:59.294Z,-0.43
2022-12-11T01:14:59.260Z,-0.43
2022-12-11T01:15:59.265Z,-0.46
2022-12-11T01:16:59.299Z,-0.43
2022-12-11T01:17:59.222Z,-0.44
2022-12-11T01:18:59.200Z,-0.46
2022-12-11T01:19:59.192Z,-0.46
2022-12-11T01:20:59.166Z,-0.46
2022-12-11T01:21:59.188Z,-0.46
2022-12-11T01:22:59.145Z,-0.44
2022-12-11T01:23:59.164Z,-0.44
2022-12-11T01:24:59.115Z,-0.44
2022-12-11T01:25:59.112Z,-0.43
2022-12-11T01:26:59.135Z,-0.44
2022-12-11T01:27:59.120Z,-0.41
2022-12-11T01:28:59.068Z,-0.44
2022-12-11T01:29:59.060Z,-0.44
2022-12-11T01:30:59.082Z,-0.49
2022-12-11T01:31:59.062Z,-0.49
2022-12-11T01:32:59.008Z,-0.47
2022-12-11T01:33:59.047Z,-0.49
2022-12-11T01:34:59.015Z,-0.49
2022-12-11T01:35:58.981Z,-0.49
2022-12-11T01:36:58.993Z,-0.50
2022-12-11T01:37:58.959Z,-0.49
2022-12-11T01:38:58.965Z,-0.47
2022-12-11T01:39:58.955Z,-0.50
2022-12-11T01:40:58.904Z,-0.52
2022-12-11T01:41:58.908Z,-0.52
2022-12-11T01:42:58.889Z,-0.53
2022-12-11T01:43:58.896Z,-0.54
2022-12-11T01:44:58.847Z,-0.56
2022-12-11T01:45:58.906Z,-0.57
2022-12-11T01:46:58.830Z,-0.61
2022-12-11T01:47:58.857Z,-0.59
2022-12-11T01:48:58.795Z,-0.59
2022-12-11T01:49:58.798Z,-0.57
2022-12-11T01:50:58.773Z,-0.62
2022-12-11T01:51:58.793Z,-0.65
2022-12-11T01:52:58.748Z,-0.65
2022-12-11T01:53:58.774Z,-0.65
2022-12-11T01:54:58.729Z,-0.67
2022-12-11T01:55:58.763Z,-0.68
2022-12-11T01:56:58.700Z,-0.67
2022-12-11T01:57:58.711Z,-0.65
2022-12-11T01:58:58.696Z,-0.68
2022-12-11T01:59:58.663Z,-0.68
2022-12-11T02:02:26.066Z,-0.71
2022-12-11T02:02:31.034Z,-0.72
2022-12-11T02:03:30.969Z,-0.77
2022-12-11T02:04:30.945Z,-0.77
2022-12-11T02:05:30.938Z,-0.78
2022-12-11T02:06:30.918Z,-0.78
2022-12-11T02:07:30.935Z,-0.77
2022-12-11T02:08:30.895Z,-0.75
2022-12-11T02:09:30.888Z,-0.77
2022-12-11T02:10:30.876Z,-0.82
2022-12-11T02:11:30.875Z,-0.85
2022-12-11T02:12:30.832Z,-0.83
2022-12-11T02:13:30.829Z,-0.83
2022-12-11T02:14:30.814Z,-0.83
2022-12-11T02:15:30.824Z,-0.85
2022-12-11T02:16:30.846Z,-0.89
2022-12-11T02:17:30.801Z,-0.86
2022-12-11T02:18:30.752Z,-0.86
2022-12-11T02:19:30.787Z,-0.89
2022-12-11T02:20:30.764Z,-0.86
2022-12-11T02:21:30.734Z,-0.85
2022-12-11T02:22:30.713Z,-0.86
2022-12-11T02:23:30.713Z,-0.90
2022-12-11T02:24:30.687Z,-0.90
2022-12-11T02:25:30.696Z,-0.90
2022-12-11T02:26:30.662Z,-0.93
2022-12-11T02:27:30.653Z,-0.91
2022-12-11T02:28:30.624Z,-0.91
2022-12-11T02:29:30.636Z,-0.91
2022-12-11T02:30:30.626Z,-0.90
2022-12-11T02:31:30.688Z,-0.90
2022-12-11T02:32:30.600Z,-0.90
2022-12-11T02:33:30.568Z,-0.91
2022-12-11T02:34:30.553Z,-0.93
2022-12-11T02:35:30.578Z,-0.96
2022-12-11T02:36:30.516Z,-0.96
2022-12-11T02:37:30.563Z,-0.94
2022-12-11T02:38:30.497Z,-0.93
2022-12-11T02:39:30.491Z,-0.91
2022-12-11T02:40:30.506Z,-0.90
2022-12-11T02:41:30.512Z,-0.89
2022-12-11T02:42:30.454Z,-0.85
2022-12-11T02:43:30.451Z,-0.83
2022-12-11T02:44:30.414Z,-0.83
2022-12-11T02:45:30.430Z,-0.85
2022-12-11T02:46:30.422Z,-0.83
2022-12-11T02:47:30.385Z,-0.82
2022-12-11T02:48:30.363Z,-0.80
2022-12-11T02:49:30.391Z,-0.78
2022-12-11T02:50:30.336Z,-0.83
2022-12-11T02:51:30.337Z,-0.85
2022-12-11T02:52:30.312Z,-0.90
2022-12-11T02:53:30.308Z,-0.94
2022-12-11T02:54:30.317Z,-0.94
2022-12-11T02:55:30.280Z,-0.94
2022-12-11T02:56:30.291Z,-1.01
2022-12-11T02:57:30.256Z,-0.99
2022-12-11T02:58:30.255Z,-0.97
2022-12-11T02:59:30.252Z,-0.96
2022-12-11T03:00:30.207Z,-0.93
2022-12-11T03:01:30.259Z,-0.91
2022-12-11T03:02:30.252Z,-0.86
2022-12-11T03:03:30.214Z,-0.86
2022-12-11T03:04:30.177Z,-0.85
2022-12-11T03:05:30.159Z,-0.83
2022-12-11T03:06:30.121Z,-0.80
2022-12-11T03:07:30.136Z,-0.77
2022-12-11T03:08:30.175Z,-0.75
2022-12-11T03:09:30.105Z,-0.74
2022-12-11T03:10:30.110Z,-0.72
2022-12-11T03:11:30.074Z,-0.72
2022-12-11T03:12:30.067Z,-0.72
2022-12-11T03:13:30.074Z,-0.75
2022-12-11T03:14:30.034Z,-0.77
2022-12-11T03:15:30.052Z,-0.77
2022-12-11T03:16:30.058Z,-0.78
2022-12-11T03:17:29.992Z,-0.78
2022-12-11T03:18:29.967Z,-0.77
2022-12-11T03:19:29.995Z,-0.78
2022-12-11T03:20:29.943Z,-0.80
2022-12-11T03:21:29.964Z,-0.82
2022-12-11T03:22:29.919Z,-0.82
2022-12-11T03:23:29.924Z,-0.85
2022-12-11T03:24:29.901Z,-0.83
2022-12-11T03:25:29.903Z,-0.86
2022-12-11T03:26:29.904Z,-0.83
2022-12-11T03:27:29.860Z,-0.85
2022-12-11T03:28:29.832Z,-0.89
2022-12-11T03:29:29.867Z,-0.91
2022-12-11T03:30:29.851Z,-0.93
2022-12-11T03:31:29.841Z,-0.94
2022-12-11T03:32:29.809Z,-0.96
2022-12-11T03:33:29.780Z,-0.96
2022-12-11T03:34:29.763Z,-0.97
2022-12-11T03:35:29.776Z,-1.02
2022-12-11T03:36:29.740Z,-1.04
2022-12-11T03:37:29.751Z,-1.04
2022-12-11T03:38:29.707Z,-1.04
2022-12-11T03:39:29.701Z,-1.02
2022-12-11T03:40:29.705Z,-1.01
2022-12-11T03:41:29.683Z,-0.99
2022-12-11T03:42:29.662Z,-1.01
2022-12-11T03:43:29.680Z,-0.99
2022-12-11T03:44:29.642Z,-0.97
2022-12-11T03:45:29.654Z,-0.96
2022-12-11T03:46:29.685Z,-0.96
2022-12-11T03:47:29.599Z,-0.96
2022-12-11T03:48:29.606Z,-0.96
2022-12-11T03:49:29.588Z,-0.96
2022-12-11T03:50:29.614Z,-1.02
2022-12-11T03:51:29.547Z,-1.08
2022-12-11T03:52:29.553Z,-1.15
2022-12-11T03:53:29.536Z,-1.20
2022-12-11T03:54:29.504Z,-1.25
2022-12-11T03:55:29.540Z,-1.25
2022-12-11T03:56:29.477Z,-1.25
2022-12-11T03:57:29.519Z,-1.25
2022-12-11T03:58:29.481Z,-1.29
2022-12-11T03:59:29.434Z,-1.33
2022-12-11T04:00:29.411Z,-1.35
2022-12-11T04:01:29.485Z,-1.30
2022-12-11T04:02:29.438Z,-1.30
2022-12-11T04:03:29.397Z,-1.30
2022-12-11T04:04:29.425Z,-1.29
2022-12-11T04:05:29.371Z,-1.32
2022-12-11T04:06:29.377Z,-1.35
2022-12-11T04:07:29.366Z,-1.35
2022-12-11T04:08:29.350Z,-1.37
2022-12-11T04:09:29.314Z,-1.37
2022-12-11T04:10:29.304Z,-1.37
2022-12-11T04:11:29.287Z,-1.35
2022-12-11T04:12:29.295Z,-1.33
2022-12-11T04:13:29.269Z,-1.30
2022-12-11T04:14:29.268Z,-1.30
2022-12-11T04:15:29.239Z,-1.27
2022-12-11T04:16:29.216Z,-1.27
2022-12-11T04:17:29.231Z,-1.27
2022-12-11T04:18:29.228Z,-1.27
2022-12-11T04:19:29.163Z,-1.27
2022-12-11T04:20:29.167Z,-1.30
2022-12-11T04:21:29.133Z,-1.32
2022-12-11T04:22:29.152Z,-1.32
2022-12-11T04:23:29.167Z,-1.33
2022-12-11T04:24:29.124Z,-1.32
2022-12-11T04:25:29.129Z,-1.29
2022-12-11T04:26:29.082Z,-1.30
2022-12-11T04:27:29.076Z,-1.32
2022-12-11T04:28:29.105Z,-1.30
2022-12-11T04:29:29.069Z,-1.27
2022-12-11T04:30:33.974Z,-1.27
2022-12-11T04:31:29.097Z,-1.25
2022-12-11T04:32:29.008Z,-1.25
2022-12-11T04:33:28.992Z,-1.27
2022-12-11T04:34:29.023Z,-1.30
2022-12-11T04:35:28.979Z,-1.33
2022-12-11T04:36:28.983Z,-1.37
2022-12-11T04:37:28.946Z,-1.37
2022-12-11T04:38:28.932Z,-1.35
2022-12-11T04:39:28.933Z,-1.32
2022-12-11T04:40:28.908Z,-1.30
2022-12-11T04:41:28.880Z,-1.27
2022-12-11T04:42:28.885Z,-1.27
2022-12-11T04:43:28.878Z,-1.25
2022-12-11T04:44:28.897Z,-1.22
2022-12-11T04:45:28.836Z,-1.20
2022-12-11T04:46:28.897Z,-1.15
2022-12-11T04:47:28.806Z,-1.14
2022-12-11T04:48:28.793Z,-1.15
2022-12-11T04:49:28.781Z,-1.17
2022-12-11T04:50:28.772Z,-1.15
2022-12-11T04:51:28.766Z,-1.17
2022-12-11T04:52:28.749Z,-1.17
2022-12-11T04:53:28.727Z,-1.20
2022-12-11T04:54:28.744Z,-1.22
2022-12-11T04:55:28.744Z,-1.23
2022-12-11T04:56:28.729Z,-1.23
2022-12-11T04:57:28.674Z,-1.25
2022-12-11T04:58:28.690Z,-1.27
2022-12-11T04:59:28.676Z,-1.27
2022-12-11T05:00:28.653Z,-1.27
2022-12-11T05:01:28.645Z,-1.32
2022-12-11T05:02:28.697Z,-1.38
2022-12-11T05:03:28.601Z,-1.40
2022-12-11T05:04:28.586Z,-1.44
2022-12-11T05:05:28.595Z,-1.44
2022-12-11T05:06:28.628Z,-1.46
2022-12-11T05:07:28.571Z,-1.44
2022-12-11T05:08:28.539Z,-1.44
2022-12-11T05:09:28.539Z,-1.41
2022-12-11T05:10:28.513Z,-1.38
2022-12-11T05:11:28.489Z,-1.37
2022-12-11T05:12:28.484Z,-1.37
2022-12-11T05:13:28.491Z,-1.37
2022-12-11T05:14:28.468Z,-1.41
2022-12-11T05:15:28.471Z,-1.46
2022-12-11T05:16:28.495Z,-1.47
2022-12-11T05:17:28.423Z,-1.48
2022-12-11T05:18:28.424Z,-1.51
2022-12-11T05:19:28.422Z,-1.51
2022-12-11T05:20:28.398Z,-1.47
2022-12-11T05:21:34.626Z,-1.46
2022-12-11T05:22:28.356Z,-1.41
2022-12-11T05:23:28.334Z,-1.40
2022-12-11T05:24:28.366Z,-1.40
2022-12-11T05:25:28.313Z,-1.40
2022-12-11T05:26:28.345Z,-1.40
2022-12-11T05:27:28.282Z,-1.38
2022-12-11T05:28:28.299Z,-1.35
2022-12-11T05:29:28.252Z,-1.38
2022-12-11T05:30:28.255Z,-1.33
2022-12-11T05:31:28.321Z,-1.33
2022-12-11T05:32:28.224Z,-1.30
2022-12-11T05:33:28.230Z,-1.32
2022-12-11T05:34:28.245Z,-1.32
2022-12-11T05:35:28.185Z,-1.33
2022-12-11T05:36:28.174Z,-1.35
2022-12-11T05:37:28.189Z,-1.40
2022-12-11T05:38:28.153Z,-1.41
2022-12-11T05:39:28.128Z,-1.47
2022-12-11T05:40:28.144Z,-1.46
2022-12-11T05:41:28.106Z,-1.47
2022-12-11T05:42:29.121Z,-1.47
2022-12-11T05:43:28.084Z,-1.44
2022-12-11T05:44:28.070Z,-1.44
2022-12-11T05:45:28.088Z,-1.44
2022-12-11T05:46:28.083Z,-1.48
2022-12-11T05:47:28.029Z,-1.54
2022-12-11T05:48:28.019Z,-1.59
2022-12-11T05:49:31.027Z,-1.64
2022-12-11T05:50:28.033Z,-1.64
2022-12-11T05:51:28.003Z,-1.65
2022-12-11T05:52:27.959Z,-1.66
2022-12-11T05:53:27.952Z,-1.65
2022-12-11T05:54:27.943Z,-1.65
2022-12-11T05:55:27.912Z,-1.62
2022-12-11T05:56:27.951Z,-1.58
2022-12-11T05:57:27.888Z,-1.54
2022-12-11T05:58:27.881Z,-1.53
2022-12-11T05:59:27.863Z,-1.54
2022-12-11T06:00:31.621Z,-1.53
2022-12-11T06:01:27.878Z,-1.54
2022-12-11T06:02:27.909Z,-1.56
2022-12-11T06:03:27.824Z,-1.58
2022-12-11T06:04:27.831Z,-1.59
2022-12-11T06:05:27.806Z,-1.64
2022-12-11T06:06:27.785Z,-1.61
2022-12-11T06:07:27.838Z,-1.56
2022-12-11T06:08:27.786Z,-1.53
2022-12-11T06:09:27.725Z,-1.50
2022-12-11T06:10:27.729Z,-1.48
2022-12-11T06:11:27.727Z,-1.44
2022-12-11T06:12:27.706Z,-1.43
2022-12-11T06:13:27.689Z,-1.41
2022-12-11T06:14:27.676Z,-1.40
2022-12-11T06:15:27.692Z,-1.41
2022-12-11T06:16:27.728Z,-1.46
2022-12-11T06:17:27.667Z,-1.53
2022-12-11T06:18:27.642Z,-1.58
2022-12-11T06:19:31.928Z,-1.59
2022-12-11T06:20:27.642Z,-1.61
2022-12-11T06:21:27.572Z,-1.62
2022-12-11T06:22:27.574Z,-1.61
2022-12-11T06:23:27.554Z,-1.56
2022-12-11T06:24:27.600Z,-1.56
2022-12-11T06:25:27.568Z,-1.53
2022-12-11T06:26:27.523Z,-1.51
2022-12-11T06:27:27.535Z,-1.51
2022-12-11T06:28:27.535Z,-1.53
2022-12-11T06:29:27.511Z,-1.53
2022-12-11T06:30:38.433Z,-1.54
2022-12-11T06:31:27.567Z,-1.54
2022-12-11T06:32:27.459Z,-1.51
2022-12-11T06:33:27.435Z,-1.53
2022-12-11T06:34:27.423Z,-1.51
2022-12-11T06:35:27.402Z,-1.50
2022-12-11T06:36:27.441Z,-1.48
2022-12-11T06:37:27.395Z,-1.47
2022-12-11T06:38:27.367Z,-1.41
2022-12-11T06:39:27.358Z,-1.38
2022-12-11T06:40:27.356Z,-1.37
2022-12-11T06:41:27.323Z,-1.33
2022-12-11T06:42:27.337Z,-1.32
2022-12-11T06:43:27.287Z,-1.33
2022-12-11T06:44:27.284Z,-1.33
2022-12-11T06:45:27.311Z,-1.35
2022-12-11T06:46:27.274Z,-1.33
2022-12-11T06:47:27.276Z,-1.35
2022-12-11T06:48:27.227Z,-1.35
2022-12-11T06:49:27.224Z,-1.33
2022-12-11T06:50:27.204Z,-1.35
2022-12-11T06:51:27.187Z,-1.35
2022-12-11T06:52:27.213Z,-1.33
2022-12-11T06:53:27.151Z,-1.32
2022-12-11T06:54:27.190Z,-1.33
2022-12-11T06:55:27.142Z,-1.32
2022-12-11T06:56:27.153Z,-1.30
2022-12-11T06:57:27.218Z,-1.32
2022-12-11T06:58:27.104Z,-1.32
2022-12-11T06:59:27.078Z,-1.30
2022-12-11T07:00:27.080Z,-1.33
2022-12-11T07:01:27.258Z,-1.33
2022-12-11T07:02:27.080Z,-1.30
2022-12-11T07:03:27.043Z,-1.32
2022-12-11T07:04:27.047Z,-1.33
2022-12-11T07:05:27.002Z,-1.35
2022-12-11T07:06:27.015Z,-1.35
2022-12-11T07:07:26.984Z,-1.37
2022-12-11T07:08:27.039Z,-1.38
2022-12-11T07:09:26.939Z,-1.38
2022-12-11T07:10:26.961Z,-1.41
2022-12-11T07:11:26.911Z,-1.41
2022-12-11T07:12:26.923Z,-1.41
2022-12-11T07:13:26.933Z,-1.44
2022-12-11T07:14:26.898Z,-1.46
2022-12-11T07:15:26.867Z,-1.47
2022-12-11T07:16:26.893Z,-1.48
2022-12-11T07:17:26.856Z,-1.50
2022-12-11T07:18:26.868Z,-1.51
2022-12-11T07:19:26.833Z,-1.51
2022-12-11T07:20:26.816Z,-1.51
2022-12-11T07:21:26.832Z,-1.53
2022-12-11T07:22:26.794Z,-1.54
2022-12-11T07:23:26.771Z,-1.53
2022-12-11T07:24:26.786Z,-1.54
2022-12-11T07:25:26.731Z,-1.53
2022-12-11T07:26:26.740Z,-1.54
2022-12-11T07:27:26.741Z,-1.58
2022-12-11T07:28:26.708Z,-1.61
2022-12-11T07:29:26.678Z,-1.64
2022-12-11T07:30:26.680Z,-1.64
2022-12-11T07:31:26.749Z,-1.62
2022-12-11T07:32:26.865Z,-1.62
2022-12-11T07:33:26.640Z,-1.61
2022-12-11T07:34:26.624Z,-1.58
2022-12-11T07:35:26.619Z,-1.56
2022-12-11T07:36:26.610Z,-1.56
2022-12-11T07:37:26.586Z,-1.58
2022-12-11T07:38:26.614Z,-1.56
2022-12-11T07:39:26.640Z,-1.58
2022-12-11T07:40:26.557Z,-1.54
2022-12-11T07:41:26.536Z,-1.56
2022-12-11T07:42:26.530Z,-1.51
2022-12-11T07:43:26.522Z,-1.51
2022-12-11T07:44:26.505Z,-1.50
2022-12-11T07:45:26.494Z,-1.51
2022-12-11T07:46:26.502Z,-1.50
2022-12-11T07:47:26.453Z,-1.53
2022-12-11T07:48:26.487Z,-1.53
2022-12-11T07:49:26.434Z,-1.51
2022-12-11T07:50:26.537Z,-1.53
2022-12-11T07:51:26.411Z,-1.53
2022-12-11T07:52:26.475Z,-1.51
2022-12-11T07:53:26.401Z,-1.48
2022-12-11T07:54:26.376Z,-1.51
2022-12-11T07:55:26.556Z,-1.53
2022-12-11T07:56:26.350Z,-1.51
2022-12-11T07:57:26.346Z,-1.51
2022-12-11T07:58:26.310Z,-1.48
2022-12-11T07:59:26.325Z,-1.50
2022-12-11T08:00:26.357Z,-1.48
2022-12-11T08:01:26.410Z,-1.50
2022-12-11T08:02:26.430Z,-1.50
2022-12-11T08:03:26.260Z,-1.50
2022-12-11T08:04:26.247Z,-1.53
2022-12-11T08:05:26.220Z,-1.54
2022-12-11T08:06:26.208Z,-1.62
2022-12-11T08:07:26.266Z,-1.65
2022-12-11T08:08:26.261Z,-1.69
2022-12-11T08:09:26.197Z,-1.68
2022-12-11T08:10:26.314Z,-1.65
2022-12-11T08:11:26.156Z,-1.62
2022-12-11T08:12:26.164Z,-1.58
2022-12-11T08:13:26.113Z,-1.58
2022-12-11T08:14:26.135Z,-1.56
2022-12-11T08:15:26.091Z,-1.54
2022-12-11T08:16:26.140Z,-1.58
2022-12-11T08:17:30.218Z,-1.59
2022-12-11T08:18:26.066Z,-1.56
2022-12-11T08:19:26.059Z,-1.54
2022-12-11T08:20:26.060Z,-1.56
2022-12-11T08:21:26.049Z,-1.54
2022-12-11T08:22:26.027Z,-1.54
2022-12-11T08:23:25.982Z,-1.50
2022-12-11T08:24:26.001Z,-1.50
2022-12-11T08:25:25.976Z,-1.47
2022-12-11T08:26:25.934Z,-1.46
2022-12-11T08:27:25.933Z,-1.44
2022-12-11T08:28:27.300Z,-1.41
2022-12-11T08:29:25.913Z,-1.38
2022-12-11T08:30:25.935Z,-1.37
2022-12-11T08:31:25.881Z,-1.38
2022-12-11T08:32:25.863Z,-1.38
2022-12-11T08:33:25.879Z,-1.35
2022-12-11T08:34:25.838Z,-1.32
2022-12-11T08:35:25.838Z,-1.29
2022-12-11T08:36:25.830Z,-1.27
2022-12-11T08:37:25.811Z,-1.27
2022-12-11T08:38:25.897Z,-1.32
2022-12-11T08:39:25.795Z,-1.37
2022-12-11T08:40:25.753Z,-1.41
2022-12-11T08:41:25.772Z,-1.41
2022-12-11T08:42:25.738Z,-1.43
2022-12-11T08:43:25.728Z,-1.41
2022-12-11T08:44:25.735Z,-1.40
2022-12-11T08:45:25.697Z,-1.43
2022-12-11T08:46:25.782Z,-1.50
2022-12-11T08:47:25.692Z,-1.56
2022-12-11T08:48:25.657Z,-1.62
2022-12-11T08:49:34.376Z,-1.64
2022-12-11T08:50:25.621Z,-1.65
2022-12-11T08:51:25.615Z,-1.62
2022-12-11T08:52:25.602Z,-1.62
2022-12-11T08:53:25.593Z,-1.59
2022-12-11T08:54:25.580Z,-1.59
2022-12-11T08:55:25.598Z,-1.61
2022-12-11T08:56:25.587Z,-1.58
2022-12-11T08:57:25.584Z,-1.58
2022-12-11T08:58:25.525Z,-1.54
2022-12-11T08:59:25.552Z,-1.53
2022-12-11T09:00:25.500Z,-1.53
2022-12-11T09:01:25.555Z,-1.50
2022-12-11T09:02:25.512Z,-1.50
2022-12-11T09:03:25.509Z,-1.48
2022-12-11T09:04:25.455Z,-1.51
2022-12-11T09:05:25.456Z,-1.53
2022-12-11T09:06:25.419Z,-1.54
2022-12-11T09:07:25.446Z,-1.61
2022-12-11T09:08:25.449Z,-1.62
2022-12-11T09:09:25.505Z,-1.59
2022-12-11T09:10:25.396Z,-1.58
2022-12-11T09:11:25.369Z,-1.58
2022-12-11T09:12:25.338Z,-1.58
2022-12-11T09:13:25.344Z,-1.54
2022-12-11T09:14:25.332Z,-1.51
2022-12-11T09:15:25.325Z,-1.47
2022-12-11T09:16:25.273Z,-1.44
2022-12-11T09:17:25.302Z,-1.40
2022-12-11T09:18:25.263Z,-1.35
2022-12-11T09:19:30.629Z,-1.30
2022-12-11T09:20:25.243Z,-1.26
2022-12-11T09:21:25.230Z,-1.23
2022-12-11T09:22:25.205Z,-1.20
2022-12-11T09:23:25.232Z,-1.19
2022-12-11T09:24:25.206Z,-1.15
2022-12-11T09:25:25.180Z,-1.09
2022-12-11T09:26:25.146Z,-1.09
2022-12-11T09:27:25.170Z,-1.11
2022-12-11T09:28:25.119Z,-1.09
2022-12-11T09:29:25.159Z,-1.08
2022-12-11T09:30:25.106Z,-1.11
2022-12-11T09:31:25.099Z,-1.09
2022-12-11T09:32:25.071Z,-1.11
2022-12-11T09:33:25.080Z,-1.08
2022-12-11T09:34:29.229Z,-1.09
2022-12-11T09:35:25.056Z,-1.07
2022-12-11T09:36:25.045Z,-1.05
2022-12-11T09:37:25.024Z,-1.04
2022-12-11T09:38:25.006Z,-1.04
2022-12-11T09:39:25.052Z,-1.04
2022-12-11T09:40:24.975Z,-1.05
2022-12-11T09:41:25.007Z,-1.05
2022-12-11T09:42:24.949Z,-1.12
2022-12-11T09:43:24.949Z,-1.19
2022-12-11T09:44:24.919Z,-1.22
2022-12-11T09:45:24.944Z,-1.22
2022-12-11T09:46:26.262Z,-1.22
2022-12-11T09:47:24.895Z,-1.19
2022-12-11T09:48:24.859Z,-1.14
2022-12-11T09:49:24.861Z,-1.11
2022-12-11T09:50:24.834Z,-1.08
2022-12-11T09:51:24.863Z,-1.02
2022-12-11T09:52:24.808Z,-0.99
2022-12-11T09:53:24.835Z,-0.94
2022-12-11T09:54:24.782Z,-0.86
2022-12-11T09:55:24.784Z,-0.83
2022-12-11T09:56:24.764Z,-0.77
2022-12-11T09:57:24.774Z,-0.74
2022-12-11T09:58:24.739Z,-0.71
2022-12-11T09:59:24.737Z,-0.67
2022-12-11T10:00:24.715Z,-0.64
2022-12-11T10:01:24.762Z,-0.64
2022-12-11T10:02:24.762Z,-0.62
2022-12-11T10:03:24.672Z,-0.62
2022-12-11T10:04:24.682Z,-0.59
2022-12-11T10:05:24.696Z,-0.57
2022-12-11T10:06:24.630Z,-0.59
2022-12-11T10:07:24.616Z,-0.61
2022-12-11T10:08:24.682Z,-0.65
2022-12-11T10:09:24.639Z,-0.65
2022-12-11T10:10:24.585Z,-0.65
2022-12-11T10:11:24.576Z,-0.70
2022-12-11T10:12:24.558Z,-0.71
2022-12-11T10:13:24.575Z,-0.68
2022-12-11T10:14:24.662Z,-0.71
2022-12-11T10:15:24.552Z,-0.71
2022-12-11T10:16:24.503Z,-0.68
2022-12-11T10:17:24.502Z,-0.67
2022-12-11T10:18:24.463Z,-0.71
2022-12-11T10:19:24.469Z,-0.75
2022-12-11T10:20:24.512Z,-0.80
2022-12-11T10:21:24.446Z,-0.85
2022-12-11T10:22:24.420Z,-0.85
2022-12-11T10:23:24.417Z,-0.89
2022-12-11T10:24:57.938Z,-0.85
2022-12-11T10:25:24.754Z,-0.80
2022-12-11T10:26:24.366Z,-0.77
2022-12-11T10:27:24.377Z,-0.74
2022-12-11T10:28:24.341Z,-0.74
2022-12-11T10:29:24.450Z,-0.75
2022-12-11T10:30:24.335Z,-0.71
2022-12-11T10:31:24.376Z,-0.77
2022-12-11T10:32:24.301Z,-0.74
2022-12-11T10:33:24.289Z,-0.72
2022-12-11T10:34:24.285Z,-0.72
2022-12-11T10:35:24.300Z,-0.71
2022-12-11T10:36:24.263Z,-0.67
2022-12-11T10:37:24.231Z,-0.65
2022-12-11T10:38:24.217Z,-0.62
2022-12-11T10:39:24.200Z,-0.57
2022-12-11T10:40:24.186Z,-0.56
2022-12-11T10:41:24.199Z,-0.53
2022-12-11T10:42:24.163Z,-0.50
2022-12-11T10:43:24.179Z,-0.47
2022-12-11T10:44:24.134Z,-0.46
2022-12-11T10:45:24.159Z,-0.47
2022-12-11T10:46:24.142Z,-0.50
2022-12-11T10:47:24.119Z,-0.52
2022-12-11T10:48:24.076Z,-0.54
2022-12-11T10:49:24.097Z,-0.54
2022-12-11T10:50:24.043Z,-0.53
2022-12-11T10:51:24.209Z,-0.49
2022-12-11T10:52:24.025Z,-0.46
2022-12-11T10:53:24.018Z,-0.44
2022-12-11T10:54:23.997Z,-0.38
2022-12-11T10:55:24.052Z,-0.36
2022-12-11T10:56:23.981Z,-0.32
2022-12-11T10:57:23.967Z,-0.34
2022-12-11T10:58:23.954Z,-0.32
2022-12-11T10:59:24.252Z,-0.31
2022-12-11T11:00:23.951Z,-0.31
2022-12-11T11:01:23.945Z,-0.29
2022-12-11T11:02:23.918Z,-0.25
2022-12-11T11:03:24.002Z,-0.29
2022-12-11T11:04:23.866Z,-0.32
2022-12-11T11:05:23.857Z,-0.35
2022-12-11T11:06:23.843Z,-0.41
2022-12-11T11:07:23.869Z,-0.43
2022-12-11T11:08:23.893Z,-0.41
2022-12-11T11:09:23.841Z,-0.41
2022-12-11T11:10:23.788Z,-0.39
2022-12-11T11:11:23.794Z,-0.38
2022-12-11T11:12:23.785Z,-0.34
2022-12-11T11:13:23.753Z,-0.29
2022-12-11T11:14:23.763Z,-0.28
2022-12-11T11:15:23.749Z,-0.29
2022-12-11T11:16:23.764Z,-0.26
2022-12-11T11:17:23.746Z,-0.32
2022-12-11T11:18:23.698Z,-0.36
2022-12-11T11:19:23.676Z,-0.41
2022-12-11T11:20:23.690Z,-0.41
2022-12-11T11:21:23.648Z,-0.38
2022-12-11T11:22:23.657Z,-0.36
2022-12-11T11:23:23.625Z,-0.31
2022-12-11T11:24:23.630Z,-0.28
2022-12-11T11:25:23.608Z,-0.23
2022-12-11T11:26:23.586Z,-0.21
2022-12-11T11:27:23.606Z,-0.15
2022-12-11T11:28:23.562Z,-0.13
2022-12-11T11:29:23.550Z,-0.11
2022-12-11T11:30:23.539Z,-0.07
2022-12-11T11:31:23.591Z,-0.07
2022-12-11T11:32:23.508Z,-0.03
2022-12-11T11:33:23.520Z,-0.02
2022-12-11T11:34:23.484Z,0.01
2022-12-11T11:35:23.481Z,0.01
2022-12-11T11:36:23.549Z,0.03
2022-12-11T11:37:23.454Z,0.04
2022-12-11T11:38:23.427Z,0.05
2022-12-11T11:39:23.420Z,0.07
2022-12-11T11:40:23.406Z,0.04
2022-12-11T11:41:23.429Z,0.03
2022-12-11T11:42:23.364Z,0.04
2022-12-11T11:43:23.362Z,0.01
2022-12-11T11:44:23.350Z,0.00
2022-12-11T11:45:23.365Z,-0.03
2022-12-11T11:46:23.431Z,-0.03
2022-12-11T11:47:23.321Z,-0.03
2022-12-11T11:48:23.279Z,-0.03
2022-12-11T11:49:23.312Z,-0.07
2022-12-11T11:50:23.267Z,-0.06
2022-12-11T11:51:23.264Z,-0.07
2022-12-11T11:52:23.232Z,-0.08
2022-12-11T11:53:23.246Z,-0.10
2022-12-11T11:54:23.258Z,-0.10
2022-12-11T11:55:23.675Z,-0.10
2022-12-11T11:56:23.187Z,-0.10
2022-12-11T11:57:23.175Z,-0.10
2022-12-11T11:58:23.159Z,-0.13
2022-12-11T11:59:23.149Z,-0.10
2022-12-11T12:00:23.159Z,-0.10
2022-12-11T12:01:23.123Z,-0.08
2022-12-11T12:02:23.200Z,-0.07
2022-12-11T12:03:23.098Z,-0.07
2022-12-11T12:04:23.073Z,-0.07
2022-12-11T12:05:23.070Z,-0.07
2022-12-11T12:06:23.072Z,-0.07
2022-12-11T12:07:23.097Z,-0.07
2022-12-11T12:08:23.109Z,-0.07
2022-12-11T12:09:23.101Z,-0.07
2022-12-11T12:10:23.042Z,-0.10
2022-12-11T12:11:23.011Z,-0.06
2022-12-11T12:12:28.587Z,-0.03
2022-12-11T12:13:48.217Z,-0.02
2022-12-11T12:14:51.238Z,0.03
2022-12-11T12:15:22.935Z,0.04
2022-12-11T12:16:51.768Z,0.01
2022-12-11T12:17:22.956Z,0.01
2022-12-11T12:18:22.892Z,0.00
2022-12-11T12:19:22.918Z,-0.02
2022-12-11T12:20:22.860Z,0.00
2022-12-11T12:21:22.854Z,0.00
2022-12-11T12:22:22.845Z,-0.02
2022-12-11T12:23:22.848Z,-0.03
2022-12-11T12:24:22.826Z,-0.02
2022-12-11T12:25:22.793Z,0.04
2022-12-11T12:26:22.787Z,0.05
2022-12-11T12:27:50.883Z,0.08
2022-12-11T12:28:22.780Z,0.07
2022-12-11T12:29:22.776Z,0.08
2022-12-11T12:30:23.809Z,0.12
2022-12-11T12:31:22.815Z,0.18
2022-12-11T12:32:22.719Z,0.19
2022-12-11T12:33:22.723Z,0.18
2022-12-11T12:34:22.709Z,0.19
2022-12-11T12:35:22.690Z,0.18
2022-12-11T12:36:22.664Z,0.15
2022-12-11T12:37:22.642Z,0.08
2022-12-11T12:38:22.669Z,0.07
2022-12-11T12:39:22.618Z,0.04
2022-12-11T12:40:22.624Z,0.07
2022-12-11T12:41:22.612Z,0.08
2022-12-11T12:42:22.586Z,0.12
2022-12-11T12:43:22.556Z,0.10
2022-12-11T12:44:22.612Z,0.08
2022-12-11T12:45:22.744Z,0.05
2022-12-11T12:46:22.526Z,-0.02
2022-12-11T12:47:22.506Z,-0.13
2022-12-11T12:48:22.546Z,-0.15
2022-12-11T12:49:22.484Z,-0.21
2022-12-11T12:50:22.511Z,-0.28
2022-12-11T12:51:22.445Z,-0.29
2022-12-11T12:52:22.439Z,-0.31
2022-12-11T12:53:22.464Z,-0.32